Time;durP1;ratioP1;P1;durP2;ratioP2;P2;SDS_P1;SDS_P2;PMS_P1;PMS_P2;Temp;Humidity;BMP_temperature;BMP_pressure;BME280_temperature;BME280_humidity;BME280_pressure;Samples;Min_cycle;Max_cycle;Signal;HPM_P1;HPM_P2
2020/05/22 00:00:30;;;;;;;4.9;4.4;;;;;;;15.76;71.82813;963.3925;;;;
2020/05/22 00:05:26;;;;;;;6.3;4.6;;;;;;;15.74;72.38379;963.4238;;;;
2020/05/22 00:10:15;;;;;;;5.9;4.9;;;;;;;15.67;72.9082;963.4344;;;;
2020/05/22 00:12:36;;;;;;;5.8;4.9;;;;;;;15.73;72.90625;963.4614;;;;
2020/05/22 00:15:00;;;;;;;5.4;4.8;;;;;;;15.63;72.86816;963.4072;;;;
2020/05/22 00:17:35;;;;;;;5.8;5.2;;;;;;;15.53;73.07324;963.3829;;;;
2020/05/22 00:19:56;;;;;;;5.9;5.3;;;;;;;15.49;73.4834;963.3636;;;;
2020/05/22 00:22:16;;;;;;;6.1;5.5;;;;;;;15.39;74.14355;963.3893;;;;
2020/05/22 00:24:40;;;;;;;5.8;5.2;;;;;;;15.42;74.20605;963.4067;;;;
2020/05/22 00:27:08;;;;;;;6.5;5.8;;;;;;;15.35;74.42676;963.3719;;;;
2020/05/22 00:29:31;;;;;;;6.4;5.7;;;;;;;15.42;74.4834;963.4191;;;;
2020/05/22 00:31:57;;;;;;;6.5;5.8;;;;;;;15.32;74.82813;963.4662;;;;
2020/05/22 00:34:22;;;;;;;7.6;6;;;;;;;15.31;74.98926;963.493;;;;
2020/05/22 00:37:37;;;;;;;6.1;5.3;;;;;;;15.26;74.50391;963.5273;;;;
2020/05/22 00:39:17;;;;;;;6.2;5.6;;;;;;;15.31;74.81445;963.5366;;;;
2020/05/22 00:41:42;;;;;;;6.4;5.7;;;;;;;15.34;74.84277;963.5589;;;;
2020/05/22 00:45:00;;;;;;;7.1;5.7;;;;;;;15.33;75.46875;963.5606;;;;
2020/05/22 00:51:28;;;;;;;6.2;5.6;;;;;;;15.15;76.48535;963.5765;;;;
2020/05/22 00:53:45;;;;;;;6.4;5.5;;;;;;;15.11;76.68848;963.5558;;;;
2020/05/22 00:58:51;;;;;;;6.6;5.6;;;;;;;15.05;77.2002;963.5544;;;;
2020/05/22 01:01:14;;;;;;;7.4;5.7;;;;;;;14.95;77.29883;963.5748;;;;
2020/05/22 01:05:55;;;;;;;6.3;5.8;;;;;;;14.93;78.59766;963.62;;;;
2020/05/22 01:08:17;;;;;;;6.9;6.2;;;;;;;14.92;78.6416;963.5967;;;;
2020/05/22 01:10:46;;;;;;;6.6;5.9;;;;;;;14.87;78.62012;963.5683;;;;
2020/05/22 01:13:56;;;;;;;6.8;6.2;;;;;;;14.86;78.65527;963.5486;;;;
2020/05/22 01:16:37;;;;;;;7.4;6.3;;;;;;;14.78;78.53613;963.4775;;;;
2020/05/22 01:18:54;;;;;;;7.4;6.5;;;;;;;14.73;79.52734;963.491;;;;
2020/05/22 01:21:18;;;;;;;6.8;6.2;;;;;;;14.74;79.55176;963.5516;;;;
2020/05/22 01:26:07;;;;;;;7.8;7;;;;;;;14.59;79.59375;963.5461;;;;
2020/05/22 01:28:33;;;;;;;8.3;7.2;;;;;;;14.52;80.45215;963.598;;;;
2020/05/22 01:30:55;;;;;;;8.4;7;;;;;;;14.45;80.79883;963.5314;;;;
2020/05/22 01:33:18;;;;;;;7.7;6.8;;;;;;;14.5;80.70215;963.5499;;;;
2020/05/22 01:35:42;;;;;;;8.2;7.4;;;;;;;14.42;80.64258;963.5442;;;;
2020/05/22 01:38:08;;;;;;;8;7.3;;;;;;;14.42;81.26953;963.5762;;;;
2020/05/22 01:40:33;;;;;;;7.8;7.1;;;;;;;14.42;81.38574;963.6345;;;;
2020/05/22 01:42:58;;;;;;;8.4;7.6;;;;;;;14.34;81.68457;963.6442;;;;
2020/05/22 01:45:23;;;;;;;8.4;7.6;;;;;;;14.15;82.68164;963.6716;;;;
2020/05/22 01:47:48;;;;;;;8.2;7.1;;;;;;;14.2;82.51758;963.7244;;;;
2020/05/22 01:50:13;;;;;;;8.4;7.2;;;;;;;14.3;81.87305;963.7283;;;;
2020/05/22 01:52:43;;;;;;;7.9;7.1;;;;;;;14.41;80.75586;963.7653;;;;
2020/05/22 01:57:32;;;;;;;7.6;6.7;;;;;;;14.22;81.65137;963.7067;;;;
2020/05/22 01:59:59;;;;;;;7.2;6.5;;;;;;;14.14;81.99512;963.6795;;;;
2020/05/22 02:02:24;;;;;;;6.9;6.2;;;;;;;14.25;80.32129;963.6603;;;;
2020/05/22 02:04:50;;;;;;;7.7;6;;;;;;;14.34;80.5;963.6384;;;;
2020/05/22 02:07:26;;;;;;;6.8;6.1;;;;;;;14.34;80.37207;963.5876;;;;
2020/05/22 02:09:51;;;;;;;6.9;6.2;;;;;;;14.23;80.86328;963.6174;;;;
2020/05/22 02:12:16;;;;;;;6.8;6.2;;;;;;;14.1;81.9541;963.5701;;;;
2020/05/22 02:14:42;;;;;;;8.2;7.1;;;;;;;14.04;82.60352;963.5391;;;;
2020/05/22 02:17:12;;;;;;;7.9;7;;;;;;;14.04;83.12598;963.5325;;;;
2020/05/22 02:19:38;;;;;;;7.9;7.2;;;;;;;14.01;83.33789;963.4952;;;;
2020/05/22 02:21:57;;;;;;;7.8;7;;;;;;;13.95;84.03516;963.4314;;;;
2020/05/22 02:24:31;;;;;;;8.3;7.5;;;;;;;14.01;84.23047;963.4001;;;;
2020/05/22 02:26:56;;;;;;;8.3;7.4;;;;;;;14.03;83.59766;963.3744;;;;
2020/05/22 02:29:21;;;;;;;8.8;7.9;;;;;;;14.01;83.54785;963.3716;;;;
2020/05/22 02:31:46;;;;;;;8.9;7.8;;;;;;;13.99;83.25488;963.3843;;;;
2020/05/22 02:34:11;;;;;;;9.4;7.7;;;;;;;13.99;83.75293;963.399;;;;
2020/05/22 02:37:35;;;;;;;8.7;7.8;;;;;;;13.99;83.82422;963.3269;;;;
2020/05/22 02:39:02;;;;;;;9;8.1;;;;;;;13.93;84.41406;963.3459;;;;
2020/05/22 02:41:27;;;;;;;9.4;7.9;;;;;;;13.92;84.20313;963.3745;;;;
2020/05/22 02:43:53;;;;;;;9;8.1;;;;;;;13.92;83.86719;963.3237;;;;
2020/05/22 02:46:18;;;;;;;8.9;8;;;;;;;13.87;84.16992;963.332;;;;
2020/05/22 02:49:43;;;;;;;9.1;8;;;;;;;13.83;84.52246;963.3079;;;;
2020/05/22 02:51:10;;;;;;;9;8.2;;;;;;;13.85;84.31738;963.353;;;;
2020/05/22 02:53:36;;;;;;;9.8;8.8;;;;;;;13.86;83.93848;963.3361;;;;
2020/05/22 02:56:00;;;;;;;9.7;8.8;;;;;;;13.81;84.33301;963.3535;;;;
2020/05/22 02:58:26;;;;;;;10.6;9.5;;;;;;;13.81;84.27539;963.4034;;;;
2020/05/22 03:00:52;;;;;;;10.7;9.6;;;;;;;13.83;84.39355;963.3792;;;;
2020/05/22 03:03:17;;;;;;;10.8;9.7;;;;;;;13.79;84.55078;963.3959;;;;
2020/05/22 03:05:43;;;;;;;10.8;9.7;;;;;;;13.75;84.92383;963.3928;;;;
2020/05/22 03:08:09;;;;;;;10.2;9.3;;;;;;;13.79;84.78223;963.4271;;;;
2020/05/22 03:10:38;;;;;;;10.7;9.6;;;;;;;13.72;84.61719;963.4277;;;;
2020/05/22 03:13:04;;;;;;;11.1;10.1;;;;;;;13.77;84.88184;963.457;;;;
2020/05/22 03:15:30;;;;;;;10.7;9.7;;;;;;;13.72;84.7666;963.4841;;;;
2020/05/22 03:18:12;;;;;;;10.5;9.5;;;;;;;13.69;84.62207;963.5067;;;;
2020/05/22 03:22:46;;;;;;;10.8;9.8;;;;;;;13.72;84.68555;963.3956;;;;
2020/05/22 03:25:14;;;;;;;11.2;10.1;;;;;;;13.64;85.5752;963.376;;;;
2020/05/22 03:27:36;;;;;;;11.6;10.4;;;;;;;13.7;85.07813;963.3645;;;;
2020/05/22 03:30:18;;;;;;;10.7;9.7;;;;;;;13.69;85.0293;963.365;;;;
2020/05/22 03:32:32;;;;;;;10.6;9.6;;;;;;;13.67;85.29297;963.3716;;;;
2020/05/22 03:37:30;;;;;;;11.1;10;;;;;;;13.73;84.31836;963.3264;;;;
2020/05/22 03:42:17;;;;;;;10.9;9.8;;;;;;;13.6;84.91797;963.3162;;;;
2020/05/22 03:44:31;;;;;;;10.3;9.4;;;;;;;13.55;84.8877;963.3658;;;;
2020/05/22 03:46:57;;;;;;;10.6;9.5;;;;;;;13.54;84.47852;963.4155;;;;
2020/05/22 03:49:22;;;;;;;10.8;9.8;;;;;;;13.42;84.22266;963.3728;;;;
2020/05/22 03:51:47;;;;;;;11;9.9;;;;;;;13.33;84.57715;963.4166;;;;
2020/05/22 03:54:12;;;;;;;14.9;10.3;;;;;;;13.35;84.85742;963.426;;;;
2020/05/22 03:56:37;;;;;;;11.2;10;;;;;;;13.38;85.44336;963.4222;;;;
2020/05/22 03:59:02;;;;;;;10.1;9.2;;;;;;;13.48;85.49707;963.4514;;;;
2020/05/22 04:04:55;;;;;;;10.5;9.5;;;;;;;13.46;85.32031;963.4219;;;;
2020/05/22 04:07:20;;;;;;;10.4;9.3;;;;;;;13.47;85.18262;963.3425;;;;
2020/05/22 04:09:44;;;;;;;10.2;9.2;;;;;;;13.49;83.7959;963.3973;;;;
2020/05/22 04:12:09;;;;;;;10.1;9.1;;;;;;;13.59;83.7334;963.426;;;;
2020/05/22 04:14:35;;;;;;;10.5;9.2;;;;;;;13.65;83.78027;963.4317;;;;
2020/05/22 04:17:04;;;;;;;11.6;9.2;;;;;;;13.64;83.31348;963.4658;;;;
2020/05/22 04:19:25;;;;;;;10.4;9.4;;;;;;;13.75;83.61426;963.4526;;;;
2020/05/22 04:21:50;;;;;;;9.6;8.6;;;;;;;13.77;82.69043;963.4645;;;;
2020/05/22 04:24:15;;;;;;;9.8;8.9;;;;;;;13.83;83.18848;963.4725;;;;
2020/05/22 04:26:42;;;;;;;12.1;8.6;;;;;;;13.79;82.19629;963.4719;;;;
2020/05/22 04:29:07;;;;;;;9.3;8.3;;;;;;;13.84;82.35742;963.4587;;;;
2020/05/22 04:31:32;;;;;;;9.6;8.2;;;;;;;13.86;82.63867;963.5073;;;;
2020/05/22 04:33:57;;;;;;;9.8;8.5;;;;;;;13.92;81.97656;963.491;;;;
2020/05/22 04:38:49;;;;;;;10.1;9;;;;;;;13.91;83.03027;963.5245;;;;
2020/05/22 04:41:14;;;;;;;10.4;8.5;;;;;;;13.99;82.47559;963.5588;;;;
2020/05/22 04:43:40;;;;;;;9.6;8.4;;;;;;;14.03;81.51172;963.557;;;;
2020/05/22 04:46:05;;;;;;;12.3;8.6;;;;;;;14.05;82.10645;963.585;;;;
2020/05/22 04:48:30;;;;;;;9.8;8.8;;;;;;;13.95;83.55957;963.6035;;;;
2020/05/22 04:50:55;;;;;;;9.1;8.2;;;;;;;14.08;83.20215;963.673;;;;
2020/05/22 04:53:21;;;;;;;9.2;8.3;;;;;;;14.19;82.05078;963.6465;;;;
2020/05/22 04:55:46;;;;;;;10.8;8.9;;;;;;;14.28;82.06738;963.6573;;;;
2020/05/22 04:58:13;;;;;;;12.2;9;;;;;;;14.37;80.81836;963.6707;;;;
2020/05/22 05:00:38;;;;;;;12.5;8.7;;;;;;;14.42;81.79199;963.7599;;;;
2020/05/22 05:03:04;;;;;;;9.2;7.6;;;;;;;14.7;79.2998;963.6924;;;;
2020/05/22 05:05:29;;;;;;;9.1;8.1;;;;;;;14.73;78.86328;963.7133;;;;
2020/05/22 05:07:55;;;;;;;8.9;7.6;;;;;;;14.82;78.25195;963.7592;;;;
2020/05/22 05:10:20;;;;;;;8.4;7.6;;;;;;;14.89;78.84766;963.7712;;;;
2020/05/22 05:12:46;;;;;;;9.7;7.8;;;;;;;14.98;77.60742;963.8459;;;;
2020/05/22 05:17:36;;;;;;;8.3;7.5;;;;;;;14.98;78.52637;963.8533;;;;
2020/05/22 05:20:03;;;;;;;7.8;7.1;;;;;;;14.93;79.4248;963.8834;;;;
2020/05/22 05:22:28;;;;;;;8.6;7.4;;;;;;;14.93;79.06348;963.8973;;;;
2020/05/22 05:24:54;;;;;;;8.7;7.2;;;;;;;14.93;80.45801;963.8095;;;;
2020/05/22 05:27:20;;;;;;;7.9;7.1;;;;;;;14.99;79.50293;963.8574;;;;
2020/05/22 05:29:45;;;;;;;11.5;8.3;;;;;;;14.88;79.78613;963.7942;;;;
2020/05/22 05:33:00;;;;;;;9.4;7.8;;;;;;;14.88;80.56445;963.7803;;;;
2020/05/22 05:34:44;;;;;;;8.9;8;;;;;;;14.94;81.28516;963.7447;;;;
2020/05/22 05:37:00;;;;;;;9.3;8.4;;;;;;;15.14;80.35645;963.717;;;;
2020/05/22 05:39:25;;;;;;;9.7;8.4;;;;;;;15.25;80.72656;963.7241;;;;
2020/05/22 05:41:50;;;;;;;9.6;8.7;;;;;;;15.31;80.13184;963.7452;;;;
2020/05/22 05:44:16;;;;;;;10.5;8.4;;;;;;;15.41;79.12695;963.769;;;;
2020/05/22 05:46:41;;;;;;;9.4;8.5;;;;;;;15.44;79.72461;963.7791;;;;
2020/05/22 05:49:07;;;;;;;8.8;7.9;;;;;;;15.58;78.50586;963.7206;;;;
2020/05/22 05:51:32;;;;;;;8.6;7.8;;;;;;;15.62;78.15039;963.7087;;;;
2020/05/22 05:53:58;;;;;;;9.1;8.2;;;;;;;15.67;77.13477;963.6638;;;;
2020/05/22 05:56:23;;;;;;;9.4;7.8;;;;;;;15.7;77.5957;963.6555;;;;
2020/05/22 05:58:49;;;;;;;8.8;7.9;;;;;;;15.72;78.70508;963.6561;;;;
2020/05/22 06:01:14;;;;;;;8.8;7.6;;;;;;;15.94;76.92773;963.7208;;;;
2020/05/22 06:03:40;;;;;;;8.5;7.2;;;;;;;16.05;75.94434;963.7087;;;;
2020/05/22 06:06:06;;;;;;;7.7;6.9;;;;;;;15.96;76.87207;963.7281;;;;
2020/05/22 06:08:48;;;;;;;8.8;7;;;;;;;16.05;76.51367;963.7606;;;;
2020/05/22 06:10:57;;;;;;;7.8;7;;;;;;;16.02;74.49316;963.7695;;;;
2020/05/22 06:13:23;;;;;;;7.4;6.6;;;;;;;16.02;74.56445;963.7752;;;;
2020/05/22 06:15:48;;;;;;;7.9;6.7;;;;;;;16.21;73.65137;963.838;;;;
2020/05/22 06:18:14;;;;;;;7.7;6.2;;;;;;;16.5;72.5332;963.8585;;;;
2020/05/22 06:20:39;;;;;;;7.2;6.5;;;;;;;16.46;72.8877;963.8675;;;;
2020/05/22 06:23:05;;;;;;;9.1;6.3;;;;;;;16.47;72.38867;963.9044;;;;
2020/05/22 06:25:30;;;;;;;7.5;6.1;;;;;;;16.61;71.51367;963.9501;;;;
2020/05/22 06:27:57;;;;;;;8.5;6.8;;;;;;;16.41;71.58496;964.0062;;;;
2020/05/22 06:30:22;;;;;;;8.6;6.6;;;;;;;16.53;71.94434;964.0132;;;;
2020/05/22 06:32:48;;;;;;;6.4;5.7;;;;;;;16.58;71.07617;964.0308;;;;
2020/05/22 06:35:13;;;;;;;9.3;6.4;;;;;;;16.65;71.60156;963.9461;;;;
2020/05/22 06:37:39;;;;;;;6.7;6;;;;;;;16.68;71.11523;963.9478;;;;
2020/05/22 06:40:04;;;;;;;7.3;6.1;;;;;;;16.67;71.47559;963.9034;;;;
2020/05/22 06:42:39;;;;;;;7.9;5.9;;;;;;;16.77;71.25879;963.9047;;;;
2020/05/22 06:45:04;;;;;;;7.7;6;;;;;;;17;71.22461;963.8343;;;;
2020/05/22 06:47:29;;;;;;;7.2;5.7;;;;;;;17.1;72.10645;963.8934;;;;
2020/05/22 06:49:55;;;;;;;6.8;6.1;;;;;;;17.01;69.98926;963.9083;;;;
2020/05/22 06:52:20;;;;;;;6.6;6;;;;;;;16.96;70.62305;963.9033;;;;
2020/05/22 06:54:47;;;;;;;7.4;6.4;;;;;;;16.94;70.91406;963.9453;;;;
2020/05/22 06:57:12;;;;;;;6.4;5.3;;;;;;;17.11;69.66699;963.9324;;;;
2020/05/22 06:59:37;;;;;;;5.9;5.3;;;;;;;17.23;69.78027;963.9258;;;;
2020/05/22 07:02:02;;;;;;;5.4;4.9;;;;;;;17.38;69.57031;963.9391;;;;
2020/05/22 07:04:30;;;;;;;6.2;5.6;;;;;;;17.42;68.10254;963.9628;;;;
2020/05/22 07:06:53;;;;;;;5.7;5.2;;;;;;;17.5;67.2959;963.9609;;;;
2020/05/22 07:09:19;;;;;;;5.8;5.1;;;;;;;17.68;67.45117;963.9601;;;;
2020/05/22 07:11:44;;;;;;;6;5.2;;;;;;;17.86;67.15137;963.9964;;;;
2020/05/22 07:14:09;;;;;;;5.5;5;;;;;;;17.81;66.40723;963.9305;;;;
2020/05/22 07:16:34;;;;;;;5.2;4.6;;;;;;;17.97;66.7832;963.9604;;;;
2020/05/22 07:21:25;;;;;;;5.7;4.4;;;;;;;18.34;65.41113;963.9503;;;;
2020/05/22 07:23:51;;;;;;;4.5;4.1;;;;;;;18.38;65.16992;963.9608;;;;
2020/05/22 07:26:16;;;;;;;5.4;4.2;;;;;;;18.46;65.30957;963.9763;;;;
2020/05/22 07:28:42;;;;;;;4.9;4.4;;;;;;;18.62;64.61816;964.014;;;;
2020/05/22 07:31:26;;;;;;;5.7;4.2;;;;;;;18.74;64.03809;963.998;;;;
2020/05/22 07:33:32;;;;;;;5.2;4.2;;;;;;;18.85;63.64355;963.9141;;;;
2020/05/22 07:35:57;;;;;;;4.9;4.2;;;;;;;18.8;64.29395;963.9787;;;;
2020/05/22 07:38:22;;;;;;;4.8;4;;;;;;;18.79;64.25781;963.9664;;;;
2020/05/22 07:40:47;;;;;;;6;4.3;;;;;;;18.83;63.17188;963.9496;;;;
2020/05/22 07:43:13;;;;;;;3.7;3.3;;;;;;;18.97;63.80273;963.9116;;;;
2020/05/22 07:45:38;;;;;;;4.9;4.1;;;;;;;19.27;64.2207;963.9465;;;;
2020/05/22 07:48:05;;;;;;;4.1;3.6;;;;;;;19.38;62.20605;963.9548;;;;
2020/05/22 07:50:30;;;;;;;3.9;3.5;;;;;;;19.42;63.02148;963.9495;;;;
2020/05/22 07:52:55;;;;;;;4.3;3.6;;;;;;;19.53;62.32031;963.8997;;;;
2020/05/22 07:55:20;;;;;;;4.9;3.4;;;;;;;19.6;60.61523;963.88;;;;
2020/05/22 07:57:45;;;;;;;3.7;3.1;;;;;;;19.58;61.11816;963.8843;;;;
2020/05/22 08:00:10;;;;;;;4;3.1;;;;;;;19.74;58.69531;963.8847;;;;
2020/05/22 08:02:35;;;;;;;4;2.7;;;;;;;19.92;58.03711;963.8979;;;;
2020/05/22 08:05:01;;;;;;;3;2.7;;;;;;;20.11;55.46094;963.9448;;;;
2020/05/22 08:07:26;;;;;;;4.1;3.1;;;;;;;20.11;56.34375;963.9381;;;;
2020/05/22 08:09:51;;;;;;;4.8;3.2;;;;;;;20.16;55.53906;964.0491;;;;
2020/05/22 08:12:16;;;;;;;3.9;3.2;;;;;;;20.23;55.9834;964.0492;;;;
2020/05/22 08:14:41;;;;;;;4.1;2.8;;;;;;;20.37;54.56641;964.0583;;;;
2020/05/22 08:17:06;;;;;;;4.2;3.2;;;;;;;20.41;54.51172;964.1223;;;;
2020/05/22 08:19:31;;;;;;;3.7;2.7;;;;;;;20.63;54.60938;964.1191;;;;
2020/05/22 08:21:57;;;;;;;3.3;3;;;;;;;20.75;54.17578;964.1383;;;;
2020/05/22 08:24:22;;;;;;;5.7;3.2;;;;;;;20.81;55.10156;964.1152;;;;
2020/05/22 08:26:48;;;;;;;3.6;2.8;;;;;;;20.97;54.48633;964.0737;;;;
2020/05/22 08:29:13;;;;;;;4.4;2.7;;;;;;;21.21;53.4541;964.0718;;;;
2020/05/22 08:31:42;;;;;;;3.2;2.4;;;;;;;21.22;53.08984;964.0577;;;;
2020/05/22 08:34:07;;;;;;;3.1;2.4;;;;;;;21.29;52.80371;964.0589;;;;
2020/05/22 08:36:33;;;;;;;3.4;2.4;;;;;;;21.37;52.89453;964.1047;;;;
2020/05/22 08:38:58;;;;;;;3.4;2.4;;;;;;;21.38;52.57813;964.1516;;;;
2020/05/22 08:41:24;;;;;;;2.8;2.6;;;;;;;21.31;52.7002;964.096;;;;
2020/05/22 08:43:49;;;;;;;3;2.3;;;;;;;21.51;52.75879;964.1661;;;;
2020/05/22 08:46:15;;;;;;;2.7;2.4;;;;;;;21.62;52.32324;964.1735;;;;
2020/05/22 08:48:40;;;;;;;3.5;2.6;;;;;;;21.78;52.87305;964.1783;;;;
2020/05/22 08:51:05;;;;;;;3.4;2.6;;;;;;;21.84;52.79785;964.1906;;;;
2020/05/22 08:53:30;;;;;;;3;2.4;;;;;;;22.08;52.41309;964.2134;;;;
2020/05/22 08:55:55;;;;;;;4.2;2.2;;;;;;;22.3;52.52148;964.2728;;;;
2020/05/22 08:58:20;;;;;;;4;2.4;;;;;;;22.28;51.19629;964.2653;;;;
2020/05/22 09:00:45;;;;;;;3.7;2.2;;;;;;;22.32;50.92773;964.3555;;;;
2020/05/22 09:03:11;;;;;;;4.2;2.1;;;;;;;22.31;50.63184;964.2906;;;;
2020/05/22 09:05:35;;;;;;;3.3;2.5;;;;;;;22.4;51.03125;964.3131;;;;
2020/05/22 09:08:01;;;;;;;2.7;2.3;;;;;;;22.32;49.66309;964.3056;;;;
2020/05/22 09:10:29;;;;;;;3;2.1;;;;;;;22.47;50.53125;964.3981;;;;
2020/05/22 09:12:54;;;;;;;2.5;2.2;;;;;;;22.59;49.97754;964.4149;;;;
2020/05/22 09:15:19;;;;;;;3.6;2.6;;;;;;;22.41;50.54883;964.3901;;;;
2020/05/22 09:17:45;;;;;;;3.1;2.3;;;;;;;22.42;50.10059;964.3865;;;;
2020/05/22 09:20:10;;;;;;;3.2;2.5;;;;;;;22.38;50.90039;964.3783;;;;
2020/05/22 09:22:35;;;;;;;2.7;2.3;;;;;;;22.51;50.00391;964.3981;;;;
2020/05/22 09:25:01;;;;;;;3.1;2.1;;;;;;;22.61;49.0332;964.464;;;;
2020/05/22 09:27:26;;;;;;;2.1;1.9;;;;;;;22.72;49.10449;964.4595;;;;
2020/05/22 09:29:52;;;;;;;2.5;2.2;;;;;;;22.48;48.9248;964.4767;;;;
2020/05/22 09:32:17;;;;;;;2.8;2;;;;;;;22.6;49.32813;964.5019;;;;
2020/05/22 09:34:50;;;;;;;3.4;2.3;;;;;;;22.75;49.21484;964.4638;;;;
2020/05/22 09:37:08;;;;;;;2.6;2.1;;;;;;;22.77;49.06348;964.5132;;;;
2020/05/22 09:39:33;;;;;;;2.4;2.2;;;;;;;22.83;49.70898;964.4822;;;;
2020/05/22 09:44:23;;;;;;;3.3;2.2;;;;;;;22.88;49.91602;964.4155;;;;
2020/05/22 09:46:49;;;;;;;3.4;2.1;;;;;;;22.81;48.62891;964.4494;;;;
2020/05/22 09:49:14;;;;;;;2.7;2.3;;;;;;;22.77;49.47852;964.5215;;;;
2020/05/22 09:51:40;;;;;;;2.3;2;;;;;;;22.81;48.7002;964.5008;;;;
2020/05/22 09:54:05;;;;;;;3;2.1;;;;;;;22.88;48.625;964.5641;;;;
2020/05/22 09:56:31;;;;;;;2.4;2.2;;;;;;;22.97;48.33887;964.6014;;;;
2020/05/22 09:58:56;;;;;;;3.2;2.4;;;;;;;23.06;48.53809;964.6437;;;;
2020/05/22 10:01:22;;;;;;;3.1;2.3;;;;;;;23.12;48.90039;964.6557;;;;
2020/05/22 10:03:48;;;;;;;2.2;2;;;;;;;23.18;47.12988;964.6161;;;;
2020/05/22 10:06:13;;;;;;;3.2;1.6;;;;;;;23.25;46.93652;964.559;;;;
2020/05/22 10:08:39;;;;;;;3.4;2.1;;;;;;;23.52;47.75879;964.5408;;;;
2020/05/22 10:11:05;;;;;;;3;1.8;;;;;;;23.58;46.43652;964.5471;;;;
2020/05/22 10:13:30;;;;;;;2.3;2.1;;;;;;;23.68;46.56543;964.5228;;;;
2020/05/22 10:18:33;;;;;;;3.5;2;;;;;;;23.62;45.83594;964.5885;;;;
2020/05/22 10:20:46;;;;;;;3.5;1.8;;;;;;;23.71;44.36426;964.5974;;;;
2020/05/22 10:23:11;;;;;;;2.7;1.7;;;;;;;23.2;44.4082;964.5974;;;;
2020/05/22 10:25:37;;;;;;;2.5;1.7;;;;;;;23.59;44.63672;964.5906;;;;
2020/05/22 10:28:02;;;;;;;2.4;1.5;;;;;;;23.5;41.85449;964.6253;;;;
2020/05/22 10:30:29;;;;;;;2.6;1.4;;;;;;;23.29;42.05859;964.5953;;;;
2020/05/22 10:32:54;;;;;;;2.4;1.5;;;;;;;23.59;42.59668;964.5598;;;;
2020/05/22 10:35:20;;;;;;;3.2;1.5;;;;;;;23.55;43.50586;964.5211;;;;
2020/05/22 10:37:45;;;;;;;3.1;1.5;;;;;;;23.58;44.67188;964.3812;;;;
2020/05/22 10:40:10;;;;;;;2.4;1.6;;;;;;;23.75;44.02344;964.3764;;;;
2020/05/22 10:42:35;;;;;;;2;1.4;;;;;;;23.91;43.17285;964.3892;;;;
2020/05/22 10:45:00;;;;;;;3.7;1.7;;;;;;;23.99;43.89258;964.3887;;;;
2020/05/22 10:47:25;;;;;;;2.7;1.4;;;;;;;24.08;43.42773;964.3631;;;;
2020/05/22 10:49:50;;;;;;;3;1.6;;;;;;;24.17;44.14844;964.2983;;;;
2020/05/22 10:52:16;;;;;;;1.9;1.4;;;;;;;24.19;42.91504;964.3484;;;;
2020/05/22 10:54:41;;;;;;;3.6;1.7;;;;;;;23.97;42.43164;964.3494;;;;
2020/05/22 10:57:06;;;;;;;2;1.5;;;;;;;24.08;42.24023;964.3912;;;;
2020/05/22 10:59:31;;;;;;;2;1.6;;;;;;;23.78;41.87988;964.3992;;;;
2020/05/22 11:01:56;;;;;;;2.5;1.5;;;;;;;23.98;40.3916;964.4674;;;;
2020/05/22 11:04:21;;;;;;;3.3;1.4;;;;;;;24.1;40.69922;964.4775;;;;
2020/05/22 11:06:46;;;;;;;1.8;1.3;;;;;;;23.95;40.87598;964.414;;;;
2020/05/22 11:09:12;;;;;;;3.6;1.2;;;;;;;24.06;39.97168;964.2814;;;;
2020/05/22 11:11:37;;;;;;;2;1;;;;;;;24.13;39.72852;964.3689;;;;
2020/05/22 11:14:02;;;;;;;3;1.4;;;;;;;23.86;41.15234;964.3596;;;;
2020/05/22 11:16:53;;;;;;;1.7;1.1;;;;;;;24.13;39.24219;964.4058;;;;
2020/05/22 11:21:21;;;;;;;1.3;1.1;;;;;;;24.27;39.27734;964.4139;;;;
2020/05/22 11:26:53;;;;;;;2.4;1.2;;;;;;;24.14;38.35156;964.4456;;;;
2020/05/22 11:28:33;;;;;;;1.4;1.1;;;;;;;24.21;39.09375;964.4949;;;;
2020/05/22 11:30:58;;;;;;;1.6;1.1;;;;;;;24.16;38.63965;964.4833;;;;
2020/05/22 11:33:23;;;;;;;2.3;1.1;;;;;;;24.2;38.53613;964.4483;;;;
2020/05/22 11:35:48;;;;;;;2.3;1.1;;;;;;;24.33;39.75781;964.3873;;;;
2020/05/22 11:38:13;;;;;;;1.6;1;;;;;;;24.37;38.80078;964.3853;;;;
2020/05/22 11:40:38;;;;;;;1.2;1.1;;;;;;;24.36;38.49121;964.3297;;;;
2020/05/22 11:43:04;;;;;;;1.7;1.2;;;;;;;24.49;38.97754;964.1928;;;;
2020/05/22 11:45:29;;;;;;;1.6;1;;;;;;;24.63;38.51367;964.0848;;;;
2020/05/22 11:47:56;;;;;;;1.4;1.1;;;;;;;24.54;41.71387;964.069;;;;
2020/05/22 11:50:56;;;;;;;1.4;0.9;;;;;;;24.83;39.14941;964.1764;;;;
2020/05/22 11:53:21;;;;;;;1.6;0.9;;;;;;;24.8;38.2793;964.2166;;;;
2020/05/22 11:55:48;;;;;;;1.3;0.9;;;;;;;24.93;37.8623;964.16;;;;
2020/05/22 11:58:13;;;;;;;1.3;0.9;;;;;;;24.89;37.90625;964.0762;;;;
2020/05/22 12:00:39;;;;;;;2.5;0.9;;;;;;;24.92;37.65918;964.1556;;;;
2020/05/22 12:03:04;;;;;;;3.7;1.1;;;;;;;24.78;38.64551;964.0931;;;;
2020/05/22 12:05:30;;;;;;;2.7;1;;;;;;;24.76;38.16797;964.0751;;;;
2020/05/22 12:07:55;;;;;;;1.7;1;;;;;;;25.01;41.13965;964.0853;;;;
2020/05/22 12:10:20;;;;;;;2.2;1.1;;;;;;;25.03;39.32129;964.1403;;;;
2020/05/22 12:12:45;;;;;;;2.1;1.2;;;;;;;24.98;38.28223;964.1862;;;;
2020/05/22 12:15:10;;;;;;;1.8;1.4;;;;;;;24.77;38.17969;964.1799;;;;
2020/05/22 12:17:40;;;;;;;2.3;1.2;;;;;;;24.81;38.57715;964.1311;;;;
2020/05/22 12:22:33;;;;;;;1.6;1.2;;;;;;;24.96;38.48242;964.2178;;;;
2020/05/22 12:25:08;;;;;;;3.7;1.3;;;;;;;24.82;38.16113;964.1584;;;;
2020/05/22 12:27:16;;;;;;;2;1.1;;;;;;;25.02;38.58301;964.1676;;;;
2020/05/22 12:29:41;;;;;;;2.1;1.2;;;;;;;25;37.78418;964.0612;;;;
2020/05/22 12:32:07;;;;;;;1.9;1.2;;;;;;;24.94;37.67285;964.0505;;;;
2020/05/22 12:34:33;;;;;;;1.4;1.2;;;;;;;25.15;38.4043;964.0712;;;;
2020/05/22 12:36:58;;;;;;;1.7;1.2;;;;;;;25.01;38.80762;964.132;;;;
2020/05/22 12:39:24;;;;;;;2.1;1.2;;;;;;;24.99;38.66406;964.1066;;;;
2020/05/22 12:41:49;;;;;;;2.1;1.2;;;;;;;24.92;38.78809;964.1161;;;;
2020/05/22 12:44:15;;;;;;;2.3;1.4;;;;;;;24.91;38.96582;964.069;;;;
2020/05/22 12:46:40;;;;;;;2.1;1.2;;;;;;;25.13;39.68652;964.0267;;;;
2020/05/22 12:49:08;;;;;;;4;1.4;;;;;;;25.1;39.07715;964.0858;;;;
2020/05/22 12:51:41;;;;;;;1.7;1.1;;;;;;;25.11;39.9707;964.028;;;;
2020/05/22 12:56:22;;;;;;;2.1;1.5;;;;;;;24.84;39.32813;963.981;;;;
2020/05/22 12:59:00;;;;;;;2.4;1.3;;;;;;;25.17;39.5957;963.942;;;;
2020/05/22 13:13:05;;;;;;;2.4;1.2;;;;;;;25.57;38.41602;964.0076;;;;
2020/05/22 13:30:35;;;;;;;1.9;1.2;;;;;;;25.64;38.13574;963.9403;;;;
2020/05/22 13:32:46;;;;;;;2.1;1.5;;;;;;;25.58;38.75098;963.9222;;;;
2020/05/22 13:44:45;;;;;;;2;1.5;;;;;;;25.67;39.12793;963.8475;;;;
2020/05/22 13:47:12;;;;;;;2.4;1.4;;;;;;;25.74;38.69336;963.8347;;;;
2020/05/22 13:52:18;;;;;;;2.9;1.3;;;;;;;25.57;37.95117;963.8047;;;;
2020/05/22 14:02:48;;;;;;;3.1;1.3;;;;;;;25.58;38.13184;963.7601;;;;
2020/05/22 14:09:04;;;;;;;2.7;1.5;;;;;;;25.84;36.85352;963.774;;;;
2020/05/22 14:11:48;;;;;;;1.7;1.3;;;;;;;25.81;36.66211;963.7779;;;;
2020/05/22 14:13:59;;;;;;;1.6;1;;;;;;;25.57;36.05762;963.6844;;;;
2020/05/22 14:16:27;;;;;;;1.4;1.3;;;;;;;25.62;36.63379;963.6251;;;;
2020/05/22 14:22:35;;;;;;;1.4;1.1;;;;;;;25.76;35.56152;963.6863;;;;
2020/05/22 14:26:18;;;;;;;3.1;1.3;;;;;;;25.3;37.52344;963.6299;;;;
2020/05/22 14:35:49;;;;;;;2.5;1.1;;;;;;;24.95;38.51758;963.5675;;;;
2020/05/22 14:40:40;;;;;;;1.4;1.2;;;;;;;25.03;39.13086;963.6631;;;;
2020/05/22 14:45:22;;;;;;;5.2;1.5;;;;;;;25.08;39.18262;963.7419;;;;
2020/05/22 14:47:42;;;;;;;3.6;1.3;;;;;;;25.12;38.47266;963.7789;;;;
2020/05/22 14:50:24;;;;;;;1.5;1.2;;;;;;;25.13;37.94922;963.7332;;;;
2020/05/22 14:54:38;;;;;;;1.8;1.1;;;;;;;25.04;38.13281;963.657;;;;
2020/05/22 14:57:03;;;;;;;2.8;1.2;;;;;;;25.08;38.3623;963.6825;;;;
2020/05/22 14:59:43;;;;;;;1.9;1.2;;;;;;;25.03;38.54883;963.7439;;;;
2020/05/22 15:01:59;;;;;;;2.7;1.2;;;;;;;24.97;38.6377;963.6953;;;;
2020/05/22 15:04:18;;;;;;;2.3;1.3;;;;;;;24.91;38.63379;963.6735;;;;
2020/05/22 15:06:43;;;;;;;2.6;1.3;;;;;;;24.99;39.03223;963.6461;;;;
2020/05/22 15:09:09;;;;;;;1.5;1.2;;;;;;;24.89;38.75;963.6467;;;;
2020/05/22 15:18:30;;;;;;;3.8;1.2;;;;;;;24.74;39.56836;963.6163;;;;
2020/05/22 15:19:22;;;;;;;3.4;1.4;;;;;;;24.69;40.00488;963.6102;;;;
2020/05/22 15:21:37;;;;;;;2.1;1.4;;;;;;;24.67;40.64453;963.6259;;;;
2020/05/22 15:24:01;;;;;;;4.3;1.3;;;;;;;24.68;39.63477;963.6566;;;;
2020/05/22 15:26:19;;;;;;;2.3;1.2;;;;;;;24.69;40.46777;963.6597;;;;
2020/05/22 15:28:44;;;;;;;3.8;1.3;;;;;;;24.65;40.50098;963.6582;;;;
2020/05/22 15:31:32;;;;;;;5.7;1.5;;;;;;;24.74;40.55469;963.6655;;;;
2020/05/22 15:33:50;;;;;;;1.8;1.3;;;;;;;24.63;41.03223;963.6599;;;;
2020/05/22 15:36:07;;;;;;;2.6;1.6;;;;;;;24.49;41.24707;963.6627;;;;
2020/05/22 15:49:34;;;;;;;2.9;1.8;;;;;;;24.36;42.40918;963.5856;;;;
2020/05/22 15:50:43;;;;;;;4;1.9;;;;;;;24.29;42.91406;963.611;;;;
2020/05/22 15:53:54;;;;;;;2.4;1.4;;;;;;;24.27;43.2793;963.5681;;;;
2020/05/22 15:57:58;;;;;;;3.8;1.7;;;;;;;24.19;43.88867;963.5303;;;;
2020/05/22 16:00:56;;;;;;;4.4;1.8;;;;;;;24.16;44.29004;963.5563;;;;
2020/05/22 16:05:17;;;;;;;3.9;1.7;;;;;;;24.12;44.32129;963.5056;;;;
2020/05/22 16:07:37;;;;;;;2.9;1.7;;;;;;;24.08;44.27051;963.5435;;;;
2020/05/22 16:13:37;;;;;;;1.6;1.5;;;;;;;24.17;44.5752;963.4785;;;;
2020/05/22 16:15:02;;;;;;;3;1.7;;;;;;;24.08;45.18457;963.4469;;;;
2020/05/22 16:19:57;;;;;;;2.6;1.7;;;;;;;24.01;45.10645;963.4311;;;;
2020/05/22 16:22:35;;;;;;;3.9;2.2;;;;;;;24.03;45.27441;963.4941;;;;
2020/05/22 16:24:32;;;;;;;3.2;1.8;;;;;;;24.03;45.20313;963.4856;;;;
2020/05/22 16:26:51;;;;;;;5.9;1.9;;;;;;;23.96;45.07715;963.4511;;;;
2020/05/22 16:31:59;;;;;;;5.8;1.9;;;;;;;23.92;46.48438;963.3906;;;;
2020/05/22 16:36:38;;;;;;;5.7;1.8;;;;;;;23.71;49.16699;963.4469;;;;
2020/05/22 16:41:23;;;;;;;3.5;1.9;;;;;;;23.58;48.87891;963.3644;;;;
2020/05/22 16:44:42;;;;;;;3.7;2.3;;;;;;;23.53;49.53906;963.342;;;;
2020/05/22 16:46:22;;;;;;;4;1.9;;;;;;;23.5;48.41992;963.3524;;;;